Time;durP1;ratioP1;P1;durP2;ratioP2;P2;SDS_P1;SDS_P2;PMS_P1;PMS_P2;Temp;Humidity;BMP_temperature;BMP_pressure;BME280_temperature;BME280_humidity;BME280_pressure;Samples;Min_cycle;Max_cycle;Signal;HPM_P1;HPM_P2
2022/05/31 00:00:09;;;;;;;7.40;3.00;;;;;;;7.55;64.67;98970.45;106146;1273;25289;-79
2022/05/31 00:03:35;;;;;;;9.00;3.20;;;;;;;7.51;64.62;98969.25;106101;1275;25769;-78
2022/05/31 00:06:04;;;;;;;8.50;3.50;;;;;;;7.49;64.65;98969.55;105927;1275;26481;-80
2022/05/31 00:08:57;;;;;;;9.50;3.90;;;;;;;7.48;64.64;98968.54;105934;1275;26609;-82
2022/05/31 00:11:44;;;;;;;8.70;3.20;;;;;;;7.47;64.65;98966.90;106054;1274;25330;-78
2022/05/31 00:15:18;;;;;;;13.00;3.60;;;;;;;7.44;64.70;98964.04;105899;1275;22536;-84
2022/05/31 00:18:41;;;;;;;;;;;;;;;;;;;;;
2022/05/31 00:21:47;;;;;;;9.30;3.80;;;;;;;7.45;64.54;98973.34;105596;1281;24247;-79
2022/05/31 00:24:24;;;;;;;9.50;4.80;;;;;;;7.39;64.66;98976.02;105543;1281;22566;-84
2022/05/31 00:27:32;;;;;;;11.30;5.20;;;;;;;7.33;64.79;98973.73;105551;1284;25526;-83
2022/05/31 00:31:04;;;;;;;10.80;4.90;;;;;;;7.25;64.78;98975.60;105577;1281;22560;-79
2022/05/31 00:33:28;;;;;;;10.70;5.10;;;;;;;7.18;64.96;98976.02;105541;1281;24393;-81
2022/05/31 00:36:17;;;;;;;11.80;5.40;;;;;;;7.13;65.00;98980.23;105636;1281;24090;-79
2022/05/31 00:39:03;;;;;;;11.00;5.20;;;;;;;7.11;65.13;98975.44;105677;1281;22688;-85
2022/05/31 00:42:54;;;;;;;;;;;;;;;;;;;;;
2022/05/31 00:46:19;;;;;;;8.60;4.30;;;;;;;7.16;65.41;98974.94;105113;1287;25176;-82
2022/05/31 00:52:53;;;;;;;8.80;3.60;;;;;;;7.29;64.94;98986.01;105025;1286;22670;-78
2022/05/31 00:56:14;;;;;;;8.90;3.90;;;;;;;7.28;65.25;98991.73;104688;1287;22552;-82
2022/05/31 00:59:47;;;;;;;9.30;4.50;;;;;;;7.25;65.27;98988.02;105415;1281;25471;-83
2022/05/31 01:02:54;;;;;;;8.40;3.90;;;;;;;7.23;65.31;98986.04;105032;1287;22778;-84
2022/05/31 01:09:26;;;;;;;;;;;;;;;;;;;;;
2022/05/31 01:12:44;;;;;;;9.10;3.60;;;;;;;6.96;65.60;98992.93;104026;1296;22739;-85
2022/05/31 01:16:14;;;;;;;;;;;;;;;;;;;;;
2022/05/31 01:23:15;;;;;;;;;;;;;;;;;;;;;
2022/05/31 01:26:39;;;;;;;9.00;3.30;;;;;;;6.87;65.69;98990.64;104752;1290;22610;-78
2022/05/31 01:30:09;;;;;;;;;;;;;;;;;;;;;
2022/05/31 01:34:24;;;;;;;9.30;3.60;;;;;;;6.87;65.85;98988.66;104768;1290;25262;-84
2022/05/31 01:37:36;;;;;;;;;;;;;;;;;;;;;
2022/05/31 01:41:14;;;;;;;8.70;4.00;;;;;;;6.83;65.93;98994.77;104520;1290;22620;-84
2022/05/31 01:44:50;;;;;;;;;;;;;;;;;;;;;
2022/05/31 01:48:05;;;;;;;;;;;;;;;;;;;;;
2022/05/31 01:51:41;;;;;;;;;;;;;;;;;;;;;
2022/05/31 01:54:46;;;;;;;9.10;3.40;;;;;;;6.78;65.97;98998.91;104430;1294;22694;-78
2022/05/31 01:57:56;;;;;;;;;;;;;;;;;;;;;
2022/05/31 02:00:49;;;;;;;;;;;;;;;;;;;;;
2022/05/31 02:03:54;;;;;;;;;;;;;;;;;;;;;
2022/05/31 02:07:22;;;;;;;10.10;4.00;;;;;;;6.79;66.16;98996.20;104211;1294;22565;-82
2022/05/31 02:10:47;;;;;;;;;;;;;;;;;;;;;
2022/05/31 02:13:23;;;;;;;8.30;3.20;;;;;;;6.67;66.06;98992.45;104288;1291;22585;-84
2022/05/31 02:16:29;;;;;;;9.70;3.60;;;;;;;6.73;66.12;98992.31;104596;1288;22575;-80
2022/05/31 02:20:37;;;;;;;9.90;4.30;;;;;;;6.71;66.01;98994.55;104208;1291;24265;-81
2022/05/31 02:23:27;;;;;;;9.00;3.80;;;;;;;6.53;65.92;98996.29;104320;1294;22564;-79
2022/05/31 02:26:19;;;;;;;9.90;4.10;;;;;;;6.52;66.11;98998.27;104189;1294;23705;-79
2022/05/31 02:29:54;;;;;;;8.30;4.00;;;;;;;6.51;66.08;98991.82;104221;1293;22963;-79
2022/05/31 02:32:21;;;;;;;9.00;4.50;;;;;;;6.43;66.07;98991.02;104933;1285;25238;-80
2022/05/31 02:35:01;;;;;;;9.80;4.10;;;;;;;6.33;65.95;98995.30;105159;1285;22768;-83
2022/05/31 02:37:35;;;;;;;11.10;4.80;;;;;;;6.24;65.88;98993.52;105050;1286;25325;-80
2022/05/31 02:40:27;;;;;;;11.00;4.40;;;;;;;6.14;66.07;98991.05;105121;1285;22563;-82
2022/05/31 02:43:15;;;;;;;10.40;4.30;;;;;;;6.12;65.84;98996.46;104890;1285;24315;-83
2022/05/31 02:46:05;;;;;;;13.40;4.50;;;;;;;6.04;65.58;98998.16;105055;1287;22710;-78
2022/05/31 02:48:46;;;;;;;8.90;4.20;;;;;;;5.85;65.72;98997.33;105636;1281;25286;-79
2022/05/31 02:51:36;;;;;;;;;;;;;;;;;;;;;
2022/05/31 02:54:37;;;;;;;10.00;4.10;;;;;;;5.88;65.96;99000.40;105607;1282;22529;-83
2022/05/31 02:57:24;;;;;;;11.10;4.20;;;;;;;5.84;66.01;99006.59;105583;1281;25522;-78
2022/05/31 03:00:36;;;;;;;;;;;;;;;;;;;;;
2022/05/31 03:03:38;;;;;;;9.80;4.30;;;;;;;5.74;65.81;99018.61;106049;1273;25354;-77
2022/05/31 03:06:34;;;;;;;11.50;4.80;;;;;;;5.60;65.91;99022.52;105918;1274;22625;-81
2022/05/31 03:09:17;;;;;;;11.90;4.60;;;;;;;5.59;66.18;99019.59;105958;1274;25238;-79
2022/05/31 03:12:04;;;;;;;10.60;4.60;;;;;;;5.50;66.26;99019.16;105974;1273;25380;-79
2022/05/31 03:14:44;;;;;;;9.90;4.20;;;;;;;5.45;66.45;99014.68;105774;1274;23561;-81
2022/05/31 03:17:29;;;;;;;9.90;4.00;;;;;;;5.51;66.99;99014.21;105766;1275;22552;-82
2022/05/31 03:20:29;;;;;;;;;;;;;;;;;;;;;
2022/05/31 03:23:21;;;;;;;9.90;4.00;;;;;;;5.73;66.88;99016.40;105955;1273;24667;-82
2022/05/31 03:26:08;;;;;;;11.20;4.70;;;;;;;5.83;66.92;99013.92;105878;1273;22810;-80
2022/05/31 03:28:58;;;;;;;9.10;4.00;;;;;;;5.95;66.61;99012.77;105828;1274;22560;-83
2022/05/31 03:32:08;;;;;;;10.00;4.30;;;;;;;6.00;67.06;99019.05;105830;1274;23262;-79
2022/05/31 03:34:59;;;;;;;14.90;4.80;;;;;;;6.00;66.89;99017.79;106212;1273;25299;-79
2022/05/31 03:37:30;;;;;;;12.80;5.00;;;;;;;5.94;66.88;99017.05;105910;1273;25238;-80
2022/05/31 03:43:42;;;;;;;15.50;4.40;;;;;;;6.30;67.42;99015.45;105885;1276;22710;-84
2022/05/31 03:46:53;;;;;;;10.50;3.80;;;;;;;6.49;67.12;99019.51;105988;1273;22569;-83
2022/05/31 03:50:00;;;;;;;;;;;;;;;;;;;;;
2022/05/31 03:52:28;;;;;;;12.20;4.10;;;;;;;6.82;66.86;99017.48;105934;1273;22540;-79
2022/05/31 03:55:23;;;;;;;;;;;;;;;;;;;;;
2022/05/31 03:58:27;;;;;;;13.70;4.70;;;;;;;7.11;66.88;99020.34;105873;1275;25246;-78
2022/05/31 04:01:04;;;;;;;10.00;4.30;;;;;;;7.25;66.89;99019.34;105964;1273;22541;-79
2022/05/31 04:03:57;;;;;;;11.30;4.40;;;;;;;7.35;66.75;99023.72;105911;1273;22537;-83
2022/05/31 04:07:00;;;;;;;10.90;4.90;;;;;;;7.49;66.73;99027.33;105933;1273;22542;-84
2022/05/31 04:09:47;;;;;;;10.10;4.10;;;;;;;7.67;66.89;99030.17;105974;1273;22659;-79
2022/05/31 04:12:30;;;;;;;13.60;5.10;;;;;;;7.85;66.79;99030.48;105792;1273;22542;-79
2022/05/31 04:15:39;;;;;;;11.20;4.50;;;;;;;8.07;67.03;99033.00;105923;1273;22564;-81
2022/05/31 04:18:17;;;;;;;11.90;5.10;;;;;;;8.20;66.80;99031.08;105828;1275;22625;-84
2022/05/31 04:21:58;;;;;;;15.20;4.60;;;;;;;8.26;66.80;99031.26;105865;1273;22515;-79
2022/05/31 04:24:57;;;;;;;11.50;4.40;;;;;;;8.36;67.13;99037.20;106031;1273;22672;-80
2022/05/31 04:28:25;;;;;;;;;;;;;;;;;;;;;
2022/05/31 04:31:24;;;;;;;17.80;5.80;;;;;;;8.76;67.06;99031.08;106027;1273;26719;-78
2022/05/31 04:35:42;;;;;;;13.90;6.00;;;;;;;8.92;66.90;99033.62;105949;1273;24230;-83
2022/05/31 04:39:00;;;;;;;16.80;5.20;;;;;;;9.07;66.98;99036.36;105507;1281;22714;-83
2022/05/31 04:41:29;;;;;;;22.70;5.50;;;;;;;9.39;67.21;99033.84;105572;1281;24323;-80
2022/05/31 04:44:34;;;;;;;28.40;7.00;;;;;;;9.67;67.27;99026.59;105571;1281;24403;-79
2022/05/31 04:47:27;;;;;;;16.40;5.00;;;;;;;9.91;67.05;99019.38;105559;1281;22836;-79
2022/05/31 04:50:16;;;;;;;16.20;5.40;;;;;;;9.99;66.85;99018.86;105425;1281;22542;-86
2022/05/31 04:53:04;;;;;;;27.20;6.00;;;;;;;10.19;66.71;99020.30;105513;1282;22544;-83
2022/05/31 04:55:35;;;;;;;23.30;5.80;;;;;;;10.35;66.78;99014.89;105538;1282;22585;-85
2022/05/31 04:58:15;;;;;;;19.80;5.50;;;;;;;10.52;66.88;99013.46;105391;1281;22579;-87
2022/05/31 05:00:50;;;;;;;24.00;6.00;;;;;;;10.69;66.68;99019.57;105205;1282;22534;-83
2022/05/31 05:04:09;;;;;;;;;;;;;;;;;;;;;
2022/05/31 05:06:47;;;;;;;29.60;5.00;;;;;;;11.22;66.61;99018.80;105250;1282;26480;-79
2022/05/31 05:09:58;;;;;;;18.60;5.40;;;;;;;11.43;66.56;99018.06;105232;1282;25364;-79
2022/05/31 05:12:53;;;;;;;16.30;5.30;;;;;;;11.72;66.49;99023.90;105646;1281;25494;-79
2022/05/31 05:16:19;;;;;;;;;;;;;;;;;;;;;
2022/05/31 05:19:34;;;;;;;13.70;4.90;;;;;;;12.29;66.38;99021.42;105873;1273;22842;-79
2022/05/31 05:22:07;;;;;;;13.10;4.50;;;;;;;12.52;66.19;99022.05;105939;1273;22535;-84
2022/05/31 05:24:50;;;;;;;12.10;4.40;;;;;;;12.74;66.03;99030.80;105847;1273;26973;-76
2022/05/31 05:32:25;;;;;;;20.10;4.80;;;;;;;13.54;65.60;99029.00;105032;1284;22563;-82
2022/05/31 05:35:50;;;;;;;13.20;4.10;;;;;;;14.12;65.17;99024.36;103719;1296;25212;-79
2022/05/31 05:38:48;;;;;;;18.60;4.10;;;;;;;14.44;65.07;99025.49;103948;1296;24224;-80
2022/05/31 05:42:14;;;;;;;;;;;;;;;;;;;;;
2022/05/31 05:45:20;;;;;;;23.00;4.60;;;;;;;14.99;64.97;99021.87;105013;1287;25296;-84
2022/05/31 05:48:17;;;;;;;;;;;;;;;;;;;;;
2022/05/31 05:51:16;;;;;;;17.80;4.60;;;;;;;15.45;64.77;99025.13;104236;1290;22668;-82
2022/05/31 05:54:35;;;;;;;22.50;4.50;;;;;;;15.61;64.73;99022.61;104462;1290;22620;-80
2022/05/31 05:57:48;;;;;;;15.50;3.90;;;;;;;15.76;64.38;99022.84;104524;1290;22556;-78
2022/05/31 06:00:43;;;;;;;13.70;3.60;;;;;;;15.86;64.46;99019.81;105125;1290;25078;-77
2022/05/31 06:04:12;;;;;;;10.00;2.90;;;;;;;15.99;64.40;99018.96;105131;1290;22561;-79
2022/05/31 06:06:45;;;;;;;8.60;3.10;;;;;;;16.21;64.50;99024.28;104759;1287;22515;-84
2022/05/31 06:09:17;;;;;;;15.20;3.20;;;;;;;16.28;64.38;99027.55;106096;1282;22690;-78
2022/05/31 06:11:47;;;;;;;14.90;3.50;;;;;;;16.37;64.44;99027.34;105769;1273;22553;-84
2022/05/31 06:14:51;;;;;;;13.90;3.00;;;;;;;16.50;64.25;99030.47;105859;1276;24362;-85
2022/05/31 06:17:41;;;;;;;20.30;3.40;;;;;;;16.60;64.14;99035.75;105926;1274;25372;-80
2022/05/31 06:20:29;;;;;;;13.60;3.40;;;;;;;16.70;63.93;99034.08;105917;1276;22557;-82
2022/05/31 06:23:07;;;;;;;11.30;2.70;;;;;;;16.75;63.91;99037.23;106440;1274;22556;-79
2022/05/31 06:25:37;;;;;;;8.50;2.50;;;;;;;16.82;64.06;99039.34;106061;1274;25405;-78
2022/05/31 06:28:46;;;;;;;;;;;;;;;;;;;;;
2022/05/31 06:31:20;;;;;;;8.00;2.00;;;;;;;16.97;63.12;99043.31;105914;1276;22535;-80
2022/05/31 06:33:51;;;;;;;6.80;1.80;;;;;;;16.98;63.33;99047.53;105767;1277;25338;-80
2022/05/31 06:36:19;;;;;;;7.20;2.40;;;;;;;17.07;63.45;99046.92;105828;1275;25520;-79
2022/05/31 06:38:46;;;;;;;7.60;2.40;;;;;;;17.20;63.39;99040.80;105753;1277;22536;-77
2022/05/31 06:41:24;;;;;;;7.20;2.20;;;;;;;17.24;63.45;99045.11;105801;1275;23213;-84
2022/05/31 06:44:10;;;;;;;10.30;2.80;;;;;;;17.40;63.21;99049.09;105938;1274;24038;-81
2022/05/31 06:47:05;;;;;;;8.40;2.60;;;;;;;17.51;63.09;99043.77;105954;1274;25443;-78
2022/05/31 06:49:51;;;;;;;11.00;3.00;;;;;;;17.47;62.62;99045.08;105847;1276;23127;-81
2022/05/31 06:58:49;;;;;;;6.20;2.60;;;;;;;17.94;62.82;99040.33;105982;1274;22566;-84
2022/05/31 07:01:19;;;;;;;8.60;2.70;;;;;;;18.13;62.72;99034.71;105839;1275;22766;-86
2022/05/31 07:04:26;;;;;;;13.60;3.40;;;;;;;18.29;62.59;99031.41;105850;1274;25338;-79
2022/05/31 07:06:58;;;;;;;8.30;3.30;;;;;;;18.42;61.78;99028.87;105839;1275;22625;-81
2022/05/31 07:09:57;;;;;;;10.70;3.50;;;;;;;18.31;62.17;99031.25;105887;1276;22535;-86
2022/05/31 07:12:40;;;;;;;9.10;3.60;;;;;;;18.51;62.37;99029.36;105767;1278;24314;-81
2022/05/31 07:15:36;;;;;;;8.40;3.50;;;;;;;18.64;61.84;99026.21;105863;1276;23907;-79
2022/05/31 07:18:36;;;;;;;8.30;3.10;;;;;;;18.70;61.53;99023.98;105774;1274;22572;-79
2022/05/31 07:21:03;;;;;;;7.20;2.90;;;;;;;18.58;61.90;99022.21;105860;1275;25356;-78
2022/05/31 07:23:53;;;;;;;7.70;2.90;;;;;;;18.72;61.88;99021.90;105889;1274;25343;-86
2022/05/31 07:26:24;;;;;;;6.50;3.00;;;;;;;18.90;61.88;99024.00;105897;1276;25259;-79
2022/05/31 07:28:58;;;;;;;8.30;2.70;;;;;;;19.08;61.57;99022.76;105919;1275;22696;-79
2022/05/31 07:31:26;;;;;;;5.90;2.60;;;;;;;19.10;60.84;99023.95;105715;1276;22556;-81
2022/05/31 07:34:12;;;;;;;7.30;2.70;;;;;;;19.15;61.27;99020.58;106009;1274;22550;-82
2022/05/31 07:36:44;;;;;;;7.00;1.90;;;;;;;19.28;61.23;99019.99;105789;1275;22547;-79
2022/05/31 07:39:16;;;;;;;8.10;3.20;;;;;;;19.32;60.58;99016.38;105853;1274;22557;-79
2022/05/31 07:41:46;;;;;;;15.40;6.60;;;;;;;19.29;60.96;99013.58;105911;1274;22565;-86
2022/05/31 07:44:21;;;;;;;6.80;2.20;;;;;;;19.41;60.74;99014.96;105971;1274;24252;-85
2022/05/31 07:46:58;;;;;;;5.30;2.00;;;;;;;19.54;60.98;99011.09;105888;1276;22723;-86
2022/05/31 07:49:25;;;;;;;4.90;2.00;;;;;;;19.57;60.39;99007.84;105736;1276;22547;-83
2022/05/31 07:52:10;;;;;;;7.60;1.80;;;;;;;19.58;60.48;99006.12;105807;1275;22578;-82
2022/05/31 07:55:12;;;;;;;5.70;1.90;;;;;;;19.75;60.21;99000.98;105825;1276;25309;-81
2022/05/31 07:58:35;;;;;;;4.00;1.40;;;;;;;19.99;60.57;99002.63;105912;1274;25356;-81
2022/05/31 08:01:26;;;;;;;4.90;2.00;;;;;;;20.02;59.26;98999.53;105913;1274;22601;-80
2022/05/31 08:03:58;;;;;;;5.50;1.90;;;;;;;19.75;59.57;98996.48;105968;1275;25496;-78
2022/05/31 08:06:45;;;;;;;5.80;2.00;;;;;;;19.85;60.00;98999.69;105876;1274;22546;-78
2022/05/31 08:09:17;;;;;;;6.30;1.60;;;;;;;20.05;59.94;98997.09;105924;1274;25965;-81
2022/05/31 08:11:44;;;;;;;4.70;1.90;;;;;;;20.16;59.71;98994.89;105868;1275;25657;-80
2022/05/31 08:14:14;;;;;;;7.80;1.90;;;;;;;20.19;59.39;98989.64;105773;1276;22669;-85
2022/05/31 08:16:41;;;;;;;9.60;1.90;;;;;;;20.23;59.34;98992.70;105876;1274;23903;-77
2022/05/31 08:19:08;;;;;;;7.30;2.20;;;;;;;20.34;59.25;98989.33;105936;1274;22529;-82
2022/05/31 08:21:35;;;;;;;7.30;2.10;;;;;;;20.39;58.91;98983.81;105886;1274;22768;-87
2022/05/31 08:24:06;;;;;;;6.60;2.00;;;;;;;20.24;58.66;98986.81;105822;1273;24205;-79
2022/05/31 08:26:59;;;;;;;6.60;2.20;;;;;;;20.19;59.21;98986.39;105915;1276;22550;-81
2022/05/31 08:29:26;;;;;;;6.50;2.00;;;;;;;20.41;59.16;98991.58;105900;1276;22607;-78
2022/05/31 08:31:58;;;;;;;6.10;2.00;;;;;;;20.59;58.59;98993.87;106031;1273;22582;-81
2022/05/31 08:34:28;;;;;;;5.40;1.90;;;;;;;20.54;58.38;98988.46;105898;1274;22556;-83
2022/05/31 08:37:23;;;;;;;7.10;2.00;;;;;;;20.63;58.61;98988.46;105907;1273;22632;-86
2022/05/31 08:39:58;;;;;;;7.30;1.70;;;;;;;20.85;58.69;98991.20;105958;1273;24226;-80
2022/05/31 08:42:55;;;;;;;5.60;1.60;;;;;;;21.02;58.45;98991.52;106057;1273;25381;-78
2022/05/31 08:45:57;;;;;;;5.80;1.60;;;;;;;21.10;57.99;98988.45;105840;1273;22540;-85
2022/05/31 08:48:33;;;;;;;5.20;1.60;;;;;;;21.18;58.07;98978.48;105873;1273;22633;-85
2022/05/31 08:57:14;;;;;;;5.80;1.60;;;;;;;21.33;57.33;98973.29;105841;1274;23176;-80
2022/05/31 09:00:16;;;;;;;4.70;1.30;;;;;;;21.44;57.42;98967.05;105887;1273;22532;-84
2022/05/31 09:03:36;;;;;;;9.20;1.50;;;;;;;21.66;57.64;98967.30;106038;1273;25471;-80
2022/05/31 09:06:13;;;;;;;4.70;1.20;;;;;;;21.97;56.99;98964.02;106027;1273;22544;-84
2022/05/31 09:09:03;;;;;;;4.90;1.30;;;;;;;22.09;57.01;98964.48;106052;1271;22585;-76
2022/05/31 09:12:00;;;;;;;4.00;1.30;;;;;;;22.33;57.03;98965.96;106060;1273;24214;-84
2022/05/31 09:14:56;;;;;;;5.00;1.50;;;;;;;22.45;56.51;98957.39;105792;1274;23915;-87
2022/05/31 09:17:51;;;;;;;6.20;1.20;;;;;;;22.39;56.18;98957.16;105957;1273;25305;-79
2022/05/31 09:20:29;;;;;;;5.20;1.50;;;;;;;22.45;56.12;98954.23;105891;1274;25505;-78
2022/05/31 09:22:59;;;;;;;3.80;1.40;;;;;;;22.53;56.36;98954.13;106032;1273;24358;-83
2022/05/31 09:25:54;;;;;;;5.00;1.20;;;;;;;22.64;56.18;98953.33;106044;1273;25206;-78
2022/05/31 09:28:32;;;;;;;5.30;1.30;;;;;;;22.76;56.19;98949.58;106017;1273;23056;-85
2022/05/31 09:31:09;;;;;;;4.00;1.40;;;;;;;22.86;55.78;98949.27;106066;1273;23179;-84
2022/05/31 09:33:48;;;;;;;5.00;1.30;;;;;;;22.85;55.73;98944.61;105845;1273;24251;-83
2022/05/31 09:36:38;;;;;;;10.70;1.40;;;;;;;22.94;55.82;98944.99;105926;1273;24270;-84
2022/05/31 09:39:16;;;;;;;4.50;1.10;;;;;;;23.11;55.80;98944.77;105904;1274;25468;-84
2022/05/31 09:42:01;;;;;;;2.90;1.10;;;;;;;23.18;55.58;98937.55;105804;1276;25291;-75
2022/05/31 09:44:44;;;;;;;4.20;1.40;;;;;;;23.17;54.80;98933.09;106044;1273;24225;-85
2022/05/31 09:47:18;;;;;;;4.60;1.30;;;;;;;23.05;54.88;98935.58;105922;1273;22623;-85
2022/05/31 09:49:48;;;;;;;3.70;1.50;;;;;;;23.12;54.79;98931.65;105916;1273;22580;-82
2022/05/31 09:52:31;;;;;;;3.60;1.20;;;;;;;23.17;55.11;98926.96;105902;1273;22556;-85
2022/05/31 09:58:38;;;;;;;3.80;1.40;;;;;;;23.45;54.87;98919.98;106023;1273;25233;-77
2022/05/31 10:01:29;;;;;;;4.30;1.20;;;;;;;23.68;54.64;98914.53;106023;1273;25246;-79
2022/05/31 10:04:11;;;;;;;3.70;1.40;;;;;;;23.82;54.66;98909.19;106028;1273;22597;-80
2022/05/31 10:07:03;;;;;;;5.40;1.60;;;;;;;23.87;54.26;98908.14;105929;1273;22559;-82
2022/05/31 10:09:30;;;;;;;4.30;1.50;;;;;;;23.87;53.99;98907.13;106029;1273;22753;-82
2022/05/31 10:12:12;;;;;;;3.80;1.50;;;;;;;23.83;54.13;98906.50;106033;1273;25396;-80
2022/05/31 10:14:45;;;;;;;4.10;1.40;;;;;;;23.88;53.74;98901.98;105908;1274;24381;-83
2022/05/31 10:17:41;;;;;;;4.40;1.30;;;;;;;23.85;53.48;98903.01;105848;1273;24316;-79
2022/05/31 10:20:23;;;;;;;5.60;1.50;;;;;;;23.71;53.00;98898.41;105913;1274;22655;-83
2022/05/31 10:22:54;;;;;;;5.90;1.60;;;;;;;23.59;53.37;98893.04;105946;1273;25439;-75
2022/05/31 10:25:51;;;;;;;5.40;1.60;;;;;;;23.52;53.14;98894.33;105854;1276;22573;-84
2022/05/31 10:29:00;;;;;;;9.90;1.80;;;;;;;23.48;53.45;98889.44;106025;1273;24246;-79
2022/05/31 10:31:54;;;;;;;3.90;1.50;;;;;;;23.66;53.37;98889.61;105778;1273;25575;-77
2022/05/31 10:34:42;;;;;;;4.40;1.80;;;;;;;23.79;53.08;98892.30;106024;1273;22712;-77
2022/05/31 10:37:28;;;;;;;4.20;1.60;;;;;;;23.86;52.91;98888.08;106096;1273;22576;-83
2022/05/31 10:40:03;;;;;;;6.50;2.10;;;;;;;23.87;52.70;98885.31;105912;1273;22560;-83
2022/05/31 10:42:34;;;;;;;5.60;1.90;;;;;;;23.91;53.01;98884.08;105921;1273;24279;-78
2022/05/31 10:45:07;;;;;;;5.80;2.00;;;;;;;24.03;52.82;98884.31;105969;1273;24297;-82
2022/05/31 10:47:34;;;;;;;5.30;1.80;;;;;;;23.93;52.05;98882.98;106051;1273;23099;-79
2022/05/31 10:50:02;;;;;;;6.10;1.80;;;;;;;23.65;52.28;98882.20;105870;1276;25297;-76
2022/05/31 10:52:43;;;;;;;5.90;2.00;;;;;;;23.37;52.53;98883.77;105942;1273;24278;-78
2022/05/31 10:55:28;;;;;;;4.50;1.90;;;;;;;23.49;52.48;98877.96;105871;1276;22860;-78
2022/05/31 10:58:11;;;;;;;5.00;1.60;;;;;;;23.74;52.41;98876.59;105899;1273;24214;-83
2022/05/31 11:00:38;;;;;;;5.40;1.60;;;;;;;23.91;51.93;98870.39;106032;1273;23066;-83
2022/05/31 11:03:33;;;;;;;5.70;1.80;;;;;;;24.03;52.30;98867.86;105892;1273;22545;-79
2022/05/31 11:06:18;;;;;;;3.70;1.50;;;;;;;24.13;51.89;98861.63;106063;1273;25290;-79
2022/05/31 11:12:34;;;;;;;7.00;2.00;;;;;;;24.23;51.38;98852.52;106041;1273;24213;-78
2022/05/31 11:15:32;;;;;;;5.60;2.20;;;;;;;24.12;51.33;98857.46;105831;1274;22535;-79
2022/05/31 11:18:33;;;;;;;5.50;1.60;;;;;;;24.07;51.51;98853.20;105951;1273;25541;-79
2022/05/31 11:21:17;;;;;;;4.70;1.80;;;;;;;24.08;51.64;98848.67;105914;1273;24319;-84
2022/05/31 11:24:18;;;;;;;4.90;1.80;;;;;;;24.10;51.39;98848.47;106085;1273;22569;-85
2022/05/31 11:27:26;;;;;;;4.30;1.60;;;;;;;24.12;51.14;98848.81;106056;1273;22623;-82
2022/05/31 11:30:25;;;;;;;4.60;1.80;;;;;;;24.19;51.26;98847.80;105867;1274;25352;-77
2022/05/31 11:33:21;;;;;;;4.20;1.40;;;;;;;24.37;50.88;98851.81;105947;1273;22497;-79
2022/05/31 11:35:57;;;;;;;4.70;1.50;;;;;;;24.38;50.52;98847.28;106068;1273;25430;-82
2022/05/31 11:38:55;;;;;;;3.60;1.70;;;;;;;24.31;50.33;98836.77;106035;1273;22708;-81
2022/05/31 11:41:59;;;;;;;5.70;1.50;;;;;;;24.23;50.16;98835.44;106082;1273;25299;-78
2022/05/31 11:44:31;;;;;;;3.70;1.60;;;;;;;23.96;50.48;98833.68;106089;1273;22564;-83
2022/05/31 11:47:36;;;;;;;4.50;1.80;;;;;;;24.06;50.70;98835.17;106062;1273;24290;-80
2022/05/31 11:50:06;;;;;;;6.60;1.60;;;;;;;24.35;50.59;98828.08;106068;1273;24213;-82
2022/05/31 11:52:36;;;;;;;3.70;1.30;;;;;;;24.61;50.47;98825.85;106070;1273;22554;-77
2022/05/31 11:58:26;;;;;;;4.60;1.30;;;;;;;24.58;49.34;98822.65;105567;1279;23137;-77
2022/05/31 12:01:37;;;;;;;4.80;1.60;;;;;;;24.08;49.52;98819.38;105866;1279;24278;-76
2022/05/31 12:04:24;;;;;;;5.00;1.40;;;;;;;23.68;49.49;98816.44;105599;1280;23744;-77
2022/05/31 12:07:31;;;;;;;5.00;1.10;;;;;;;23.57;49.61;98812.73;106533;1279;22543;-78
2022/05/31 12:10:09;;;;;;;3.40;1.20;;;;;;;23.76;49.41;98805.11;105439;1279;22652;-78
2022/05/31 12:12:39;;;;;;;4.30;1.20;;;;;;;24.14;49.73;98808.98;105505;1279;25196;-78
2022/05/31 12:15:29;;;;;;;3.20;1.20;;;;;;;24.53;49.37;98801.71;105624;1280;22546;-75
2022/05/31 12:18:38;;;;;;;5.90;1.10;;;;;;;24.48;48.81;98798.42;105584;1280;25218;-75
2022/05/31 12:21:49;;;;;;;5.10;1.40;;;;;;;24.04;48.75;98799.08;105889;1279;22808;-76
2022/05/31 12:24:52;;;;;;;3.70;1.50;;;;;;;23.63;48.87;98795.37;105392;1279;22541;-79
2022/05/31 12:27:24;;;;;;;4.60;1.30;;;;;;;23.60;49.17;98790.65;105450;1279;23173;-75
2022/05/31 12:30:26;;;;;;;;;;;;;;;;;;;;;
2022/05/31 12:33:58;;;;;;;3.70;1.30;;;;;;;24.10;49.45;98777.74;106024;1273;22777;-77
2022/05/31 12:36:56;;;;;;;4.60;1.30;;;;;;;24.35;48.69;98769.84;106027;1273;23995;-75
2022/05/31 12:39:38;;;;;;;4.10;1.50;;;;;;;24.43;48.72;98765.41;106053;1274;23171;-75
2022/05/31 12:42:38;;;;;;;5.20;1.40;;;;;;;24.47;48.49;98761.95;106125;1273;22582;-75
2022/05/31 12:45:44;;;;;;;4.20;1.50;;;;;;;24.41;48.49;98769.83;106111;1273;22566;-76
2022/05/31 12:48:38;;;;;;;4.40;1.30;;;;;;;24.31;48.16;98769.11;106047;1276;26492;-76
2022/05/31 12:51:24;;;;;;;3.90;1.20;;;;;;;24.15;48.45;98768.53;106254;1274;22874;-77
2022/05/31 12:54:24;;;;;;;4.00;1.10;;;;;;;23.97;48.25;98764.20;105817;1274;25240;-77
2022/05/31 12:56:57;;;;;;;5.40;1.50;;;;;;;23.82;48.17;98761.48;105987;1273;23989;-75
2022/05/31 12:59:46;;;;;;;5.60;1.30;;;;;;;23.61;48.26;98763.08;105764;1276;25340;-75
2022/05/31 13:02:30;;;;;;;5.10;1.40;;;;;;;23.24;47.80;98764.41;105917;1273;22560;-76
2022/05/31 13:05:26;;;;;;;3.40;1.40;;;;;;;22.90;48.17;98759.06;106042;1274;24210;-78
2022/05/31 13:08:11;;;;;;;3.90;1.20;;;;;;;22.61;48.32;98762.31;105864;1273;24101;-80
2022/05/31 13:19:41;;;;;;;5.30;1.20;;;;;;;22.26;48.19;98755.95;105809;1274;25539;-76
2022/05/31 13:22:12;;;;;;;4.60;1.20;;;;;;;22.28;48.19;98757.15;105922;1274;22534;-83
2022/05/31 13:25:17;;;;;;;;;;;;;;;;;;;;;
2022/05/31 13:28:07;;;;;;;4.90;1.10;;;;;;;22.30;47.91;98749.05;105884;1274;24264;-81
2022/05/31 13:30:42;;;;;;;5.30;1.30;;;;;;;22.40;48.11;98746.15;105906;1274;25497;-79
2022/05/31 13:33:19;;;;;;;5.10;1.30;;;;;;;22.55;47.81;98741.23;105860;1277;22632;-82
2022/05/31 13:36:15;;;;;;;3.70;1.20;;;;;;;22.58;47.70;98742.04;105908;1274;24295;-82
2022/05/31 13:38:49;;;;;;;3.70;1.10;;;;;;;22.53;47.62;98743.30;105894;1278;24222;-78
2022/05/31 13:42:11;;;;;;;3.50;1.00;;;;;;;22.41;47.69;98743.65;105913;1274;22563;-83
2022/05/31 13:44:40;;;;;;;5.00;1.20;;;;;;;22.36;47.77;98742.55;105421;1284;24397;-78
2022/05/31 13:47:42;;;;;;;3.90;1.20;;;;;;;22.50;47.89;98738.75;105366;1284;25316;-75
2022/05/31 13:50:08;;;;;;;4.50;1.10;;;;;;;22.69;48.06;98728.50;105376;1284;22866;-76
2022/05/31 13:53:02;;;;;;;4.20;1.50;;;;;;;22.81;48.02;98727.31;105379;1284;22864;-79
2022/05/31 13:55:32;;;;;;;6.30;1.50;;;;;;;22.87;48.03;98725.09;105040;1284;25292;-75
2022/05/31 13:58:12;;;;;;;4.30;1.10;;;;;;;22.90;48.14;98721.14;105256;1284;22716;-81
2022/05/31 14:00:44;;;;;;;4.50;1.40;;;;;;;22.91;48.13;98719.92;105038;1287;24142;-77
2022/05/31 14:03:27;;;;;;;2.90;1.10;;;;;;;22.74;47.81;98715.48;105147;1284;23144;-81
2022/05/31 14:05:58;;;;;;;4.10;1.30;;;;;;;22.50;47.85;98713.52;105153;1284;25457;-76
2022/05/31 14:08:35;;;;;;;3.30;1.20;;;;;;;22.32;48.08;98717.73;105340;1285;24290;-83
2022/05/31 14:11:10;;;;;;;4.60;1.20;;;;;;;22.18;48.03;98711.05;105335;1284;24593;-76
2022/05/31 14:13:38;;;;;;;6.70;2.10;;;;;;;22.01;47.78;98707.13;105119;1284;25381;-77
2022/05/31 14:16:16;;;;;;;3.80;1.30;;;;;;;21.82;47.47;98703.52;105130;1285;26478;-77
2022/05/31 14:18:56;;;;;;;4.50;1.30;;;;;;;21.62;47.62;98706.45;105154;1284;22856;-83
2022/05/31 14:21:25;;;;;;;3.90;1.20;;;;;;;21.56;47.92;98705.73;105769;1274;25598;-76
2022/05/31 14:24:10;;;;;;;;;;;;;;;;;;;;;
2022/05/31 14:26:40;;;;;;;4.40;1.40;;;;;;;21.62;48.14;98701.15;105878;1274;24234;-80
2022/05/31 14:29:32;;;;;;;3.30;1.30;;;;;;;21.70;47.87;98686.77;106084;1273;23947;-81
2022/05/31 14:32:02;;;;;;;4.90;1.70;;;;;;;21.82;47.88;98680.55;106113;1273;25233;-77
2022/05/31 14:34:45;;;;;;;7.10;1.90;;;;;;;21.99;47.75;98681.16;106106;1273;24415;-77
2022/05/31 14:37:25;;;;;;;9.30;1.60;;;;;;;22.06;47.72;98674.29;105870;1274;25304;-77
2022/05/31 14:40:03;;;;;;;6.10;1.80;;;;;;;22.07;47.89;98672.54;105886;1273;22715;-84
2022/05/31 14:42:53;;;;;;;5.10;1.50;;;;;;;22.05;47.85;98674.27;105893;1274;24214;-79
2022/05/31 14:45:29;;;;;;;6.10;2.50;;;;;;;21.95;47.74;98673.30;105886;1273;22582;-83
2022/05/31 14:47:57;;;;;;;6.30;1.70;;;;;;;21.88;47.70;98667.86;106055;1273;22833;-82